Time;durP1;ratioP1;P1;durP2;ratioP2;P2;SDS_P1;SDS_P2;PMS_P1;PMS_P2;Temp;Humidity;BMP_temperature;BMP_pressure;BME280_temperature;BME280_humidity;BME280_pressure;Samples;Min_cycle;Max_cycle;Signal;HPM_P1;HPM_P2
2021/09/25 00:00:12;;;;;;;5.93;5.43;;;;;;;;;;5016316;28;20536;-73
2021/09/25 00:02:38;;;;;;;6.33;5.17;;;;;;;;;;5034730;28;20412;-73
2021/09/25 00:05:05;;;;;;;9.20;5.70;;;;;;;;;;5034947;28;20770;-73
2021/09/25 00:07:31;;;;;;;8.10;6.10;;;;;;;;;;5034807;28;20423;-74
2021/09/25 00:09:57;;;;;;;7.07;6.30;;;;;;;;;;5034850;28;20782;-74
2021/09/25 00:12:23;;;;;;;6.13;5.53;;;;;;;;;;5034535;28;20418;-74
2021/09/25 00:14:49;;;;;;;6.87;6.20;;;;;;;;;;5034214;28;20990;-73
2021/09/25 00:17:15;;;;;;;6.03;5.53;;;;;;;;;;5034572;28;20462;-73
2021/09/25 00:19:41;;;;;;;6.37;5.60;;;;;;;;;;5034633;28;20423;-75
2021/09/25 00:22:07;;;;;;;7.03;6.30;;;;;;;;;;5034498;28;20447;-74
2021/09/25 00:24:33;;;;;;;7.23;5.63;;;;;;;;;;5027492;28;20452;-73
2021/09/25 00:26:59;;;;;;;6.47;5.87;;;;;;;;;;5014315;28;20409;-73
2021/09/25 00:29:25;;;;;;;7.40;6.63;;;;;;;;;;5014387;28;20444;-72
2021/09/25 00:31:52;;;;;;;6.63;6.00;;;;;;;;;;5014891;28;20423;-73
2021/09/25 00:34:18;;;;;;;7.47;6.77;;;;;;;;;;5014580;28;20762;-74
2021/09/25 00:36:45;;;;;;;8.47;7.50;;;;;;;;;;5014400;28;20968;-73
2021/09/25 00:39:11;;;;;;;8.37;7.47;;;;;;;;;;5014292;28;20420;-73
2021/09/25 00:41:37;;;;;;;13.60;7.13;;;;;;;;;;5013992;28;20427;-73
2021/09/25 00:44:03;;;;;;;27.43;10.97;;;;;;;;;;5014637;28;20783;-74
2021/09/25 00:46:29;;;;;;;11.90;8.13;;;;;;;;;;5013968;28;20413;-73
2021/09/25 00:48:55;;;;;;;9.33;7.60;;;;;;;;;;5014249;28;20421;-74
2021/09/25 00:51:21;;;;;;;9.07;8.17;;;;;;;;;;5014241;28;20421;-73
2021/09/25 00:53:47;;;;;;;11.30;8.00;;;;;;;;;;5014044;28;20420;-73
2021/09/25 00:56:13;;;;;;;11.10;8.63;;;;;;;;;;5013545;28;20518;-74
2021/09/25 00:58:39;;;;;;;8.00;7.03;;;;;;;;;;5014008;28;20486;-74
2021/09/25 01:01:05;;;;;;;8.80;7.90;;;;;;;;;;5017748;28;20459;-73
2021/09/25 01:03:32;;;;;;;12.43;8.03;;;;;;;;;;5013970;28;20512;-73
2021/09/25 01:05:57;;;;;;;12.10;9.40;;;;;;;;;;5013859;28;20828;-73
2021/09/25 01:08:24;;;;;;;9.40;7.37;;;;;;;;;;5029113;28;20425;-74
2021/09/25 01:10:51;;;;;;;8.87;7.97;;;;;;;;;;5013435;28;20464;-74
2021/09/25 01:13:18;;;;;;;8.67;7.83;;;;;;;;;;5013833;28;20499;-74
2021/09/25 01:15:44;;;;;;;12.60;8.90;;;;;;;;;;5013290;28;20489;-74
2021/09/25 01:18:10;;;;;;;9.27;7.67;;;;;;;;;;5028586;28;20945;-73
2021/09/25 01:20:36;;;;;;;10.07;8.30;;;;;;;;;;5013628;28;20453;-74
2021/09/25 01:23:03;;;;;;;9.33;8.17;;;;;;;;;;5013516;28;20449;-73
2021/09/25 01:25:29;;;;;;;8.70;7.80;;;;;;;;;;5028686;28;20436;-73
2021/09/25 01:27:55;;;;;;;12.90;9.97;;;;;;;;;;5013027;28;20741;-74
2021/09/25 01:30:21;;;;;;;9.13;7.83;;;;;;;;;;5013136;28;20437;-73
2021/09/25 01:32:48;;;;;;;10.83;8.10;;;;;;;;;;5013352;28;20421;-74
2021/09/25 01:35:16;;;;;;;10.40;7.97;;;;;;;;;;5013162;28;20530;-73
2021/09/25 01:37:44;;;;;;;7.60;6.80;;;;;;;;;;5013516;28;20413;-73
2021/09/25 01:40:10;;;;;;;7.77;6.97;;;;;;;;;;5012978;28;20761;-73
2021/09/25 01:42:36;;;;;;;8.23;7.00;;;;;;;;;;5012752;28;20793;-73
2021/09/25 01:45:03;;;;;;;8.27;6.80;;;;;;;;;;5027752;28;20788;-73
2021/09/25 01:47:29;;;;;;;9.43;8.43;;;;;;;;;;5013035;28;20432;-74
2021/09/25 01:49:59;;;;;;;10.33;8.27;;;;;;;;;;5012807;28;20509;-73
2021/09/25 01:52:25;;;;;;;7.63;6.60;;;;;;;;;;5028077;28;20424;-73
2021/09/25 01:54:51;;;;;;;7.87;7.17;;;;;;;;;;5012783;28;20998;-73
2021/09/25 01:57:17;;;;;;;8.77;7.50;;;;;;;;;;5012545;28;20420;-73
2021/09/25 01:59:43;;;;;;;9.90;7.97;;;;;;;;;;5012621;28;20409;-73
2021/09/25 02:02:09;;;;;;;11.93;8.30;;;;;;;;;;5029862;28;20427;-73
2021/09/25 02:04:36;;;;;;;10.23;7.17;;;;;;;;;;5032551;28;20422;-74
2021/09/25 02:07:02;;;;;;;10.50;6.20;;;;;;;;;;5032473;28;20470;-74
2021/09/25 02:09:28;;;;;;;8.73;7.43;;;;;;;;;;5032355;28;20416;-73
2021/09/25 02:11:54;;;;;;;8.10;7.30;;;;;;;;;;5032037;28;20511;-73
2021/09/25 02:14:20;;;;;;;9.50;7.90;;;;;;;;;;5032041;28;20510;-74
2021/09/25 02:16:46;;;;;;;9.53;8.63;;;;;;;;;;5032530;28;20447;-73
2021/09/25 02:19:12;;;;;;;9.70;7.23;;;;;;;;;;5032395;28;20992;-74
2021/09/25 02:21:38;;;;;;;9.40;7.60;;;;;;;;;;5032528;28;20415;-73
2021/09/25 02:24:04;;;;;;;11.90;8.40;;;;;;;;;;5029608;28;20820;-73
2021/09/25 02:26:30;;;;;;;10.17;8.00;;;;;;;;;;5012427;28;20428;-73
2021/09/25 02:28:56;;;;;;;10.30;8.20;;;;;;;;;;5012878;28;20908;-73
2021/09/25 02:31:22;;;;;;;8.53;7.73;;;;;;;;;;5012567;28;20570;-74
2021/09/25 02:33:48;;;;;;;9.67;8.63;;;;;;;;;;5012570;28;20792;-73
2021/09/25 02:36:14;;;;;;;9.20;7.63;;;;;;;;;;5012757;28;20429;-73
2021/09/25 02:38:40;;;;;;;10.80;7.77;;;;;;;;;;5012646;28;20559;-73
2021/09/25 02:41:06;;;;;;;11.43;9.53;;;;;;;;;;5012206;28;20532;-73
2021/09/25 02:43:32;;;;;;;15.93;8.10;;;;;;;;;;5027791;28;20845;-73
2021/09/25 02:45:58;;;;;;;14.73;8.10;;;;;;;;;;5027828;28;20482;-74
2021/09/25 02:48:24;;;;;;;18.43;8.90;;;;;;;;;;5012916;28;20464;-74
2021/09/25 02:50:50;;;;;;;13.67;8.90;;;;;;;;;;5012472;28;20868;-73
2021/09/25 02:53:16;;;;;;;19.60;8.93;;;;;;;;;;5012631;28;20423;-73
2021/09/25 02:55:42;;;;;;;15.30;8.40;;;;;;;;;;5012384;28;20472;-73
2021/09/25 02:58:08;;;;;;;17.33;8.53;;;;;;;;;;5015285;28;20421;-72
2021/09/25 03:00:34;;;;;;;16.13;9.50;;;;;;;;;;5020219;28;20427;-73
2021/09/25 03:03:02;;;;;;;13.77;10.00;;;;;;;;;;5014754;28;20440;-72
2021/09/25 03:05:28;;;;;;;12.00;9.33;;;;;;;;;;5016490;28;20421;-73
2021/09/25 03:07:54;;;;;;;14.17;10.50;;;;;;;;;;5014956;28;20436;-73
2021/09/25 03:10:20;;;;;;;12.47;9.60;;;;;;;;;;5016024;28;20506;-73
2021/09/25 03:12:46;;;;;;;14.47;9.60;;;;;;;;;;5015752;28;20416;-73
2021/09/25 03:15:12;;;;;;;17.40;10.80;;;;;;;;;;5015595;28;20516;-73
2021/09/25 03:17:38;;;;;;;15.80;9.87;;;;;;;;;;5015954;28;20919;-74
2021/09/25 03:20:06;;;;;;;14.73;9.60;;;;;;;;;;5015949;28;20421;-74
2021/09/25 03:22:32;;;;;;;13.63;7.73;;;;;;;;;;5015880;28;20448;-72
2021/09/25 03:24:58;;;;;;;14.07;8.40;;;;;;;;;;5016058;28;20448;-74
2021/09/25 03:27:25;;;;;;;10.17;7.97;;;;;;;;;;5015572;28;20790;-74
2021/09/25 03:29:51;;;;;;;14.77;9.50;;;;;;;;;;5015625;28;20428;-74
2021/09/25 03:32:18;;;;;;;9.80;7.70;;;;;;;;;;5015697;28;20417;-74
2021/09/25 03:34:44;;;;;;;9.33;8.27;;;;;;;;;;5015605;28;20581;-75
2021/09/25 03:37:10;;;;;;;9.27;8.23;;;;;;;;;;5015569;28;20876;-73
2021/09/25 03:39:36;;;;;;;12.73;8.47;;;;;;;;;;5015446;28;20446;-74
2021/09/25 03:42:02;;;;;;;12.43;7.93;;;;;;;;;;5015183;28;20891;-74
2021/09/25 03:44:28;;;;;;;13.53;8.27;;;;;;;;;;5015593;28;20413;-74
2021/09/25 03:46:56;;;;;;;9.00;7.83;;;;;;;;;;5014141;28;20439;-74
2021/09/25 03:49:22;;;;;;;8.00;7.20;;;;;;;;;;5015265;28;20495;-74
2021/09/25 03:51:48;;;;;;;10.80;7.10;;;;;;;;;;5015456;28;20436;-73
2021/09/25 03:54:14;;;;;;;12.03;8.90;;;;;;;;;;5015292;28;20563;-74
2021/09/25 03:56:40;;;;;;;12.77;7.73;;;;;;;;;;5014778;28;20444;-73
2021/09/25 03:59:06;;;;;;;11.50;7.80;;;;;;;;;;5015282;28;20420;-74
2021/09/25 04:01:32;;;;;;;8.37;7.30;;;;;;;;;;5026751;28;20428;-73
2021/09/25 04:03:58;;;;;;;9.07;7.23;;;;;;;;;;5034861;28;20816;-73
2021/09/25 04:06:26;;;;;;;8.13;7.33;;;;;;;;;;5034671;28;20428;-73
2021/09/25 04:08:52;;;;;;;7.90;7.10;;;;;;;;;;5034807;28;20450;-74
2021/09/25 04:11:18;;;;;;;14.63;7.73;;;;;;;;;;5034199;28;20416;-73
2021/09/25 04:13:44;;;;;;;12.07;7.10;;;;;;;;;;5034600;28;20423;-73
2021/09/25 04:16:09;;;;;;;13.43;8.27;;;;;;;;;;5034347;28;20475;-73
2021/09/25 04:18:35;;;;;;;13.90;8.30;;;;;;;;;;5034559;28;20764;-72
2021/09/25 04:21:01;;;;;;;11.63;7.80;;;;;;;;;;5034396;28;20412;-73
2021/09/25 04:23:27;;;;;;;9.70;8.70;;;;;;;;;;5034489;28;20447;-73
2021/09/25 04:25:53;;;;;;;16.43;9.60;;;;;;;;;;5015940;28;20429;-73
2021/09/25 04:28:19;;;;;;;12.57;7.67;;;;;;;;;;5014647;28;20492;-73
2021/09/25 04:30:46;;;;;;;16.30;8.53;;;;;;;;;;5009101;28;20478;-73
2021/09/25 04:33:12;;;;;;;8.70;7.40;;;;;;;;;;5014459;28;20433;-73
2021/09/25 04:35:38;;;;;;;10.80;7.80;;;;;;;;;;5014746;28;20559;-74
2021/09/25 04:38:04;;;;;;;10.27;8.63;;;;;;;;;;5014682;28;20844;-74
2021/09/25 04:40:31;;;;;;;13.07;7.70;;;;;;;;;;5014654;28;20435;-74
2021/09/25 04:42:58;;;;;;;9.30;8.07;;;;;;;;;;5013943;28;20417;-74
2021/09/25 04:45:24;;;;;;;12.00;8.20;;;;;;;;;;5014535;28;20487;-74
2021/09/25 04:47:50;;;;;;;8.27;6.40;;;;;;;;;;5014410;28;20412;-74
2021/09/25 04:50:17;;;;;;;6.83;6.00;;;;;;;;;;5014491;28;20833;-74
2021/09/25 04:52:44;;;;;;;9.50;6.73;;;;;;;;;;5029362;28;20463;-73
2021/09/25 04:55:10;;;;;;;8.30;6.67;;;;;;;;;;5014098;28;20575;-74
2021/09/25 04:57:36;;;;;;;6.40;5.80;;;;;;;;;;5013766;28;20425;-74
2021/09/25 05:00:03;;;;;;;8.27;6.10;;;;;;;;;;5013961;28;20440;-73
2021/09/25 05:02:29;;;;;;;8.13;7.27;;;;;;;;;;5013821;28;20839;-73
2021/09/25 05:04:55;;;;;;;7.63;6.70;;;;;;;;;;5013987;28;20424;-74
2021/09/25 05:07:21;;;;;;;7.57;6.77;;;;;;;;;;5013929;28;20934;-73
2021/09/25 05:09:47;;;;;;;7.70;6.03;;;;;;;;;;5013777;28;20444;-74
2021/09/25 05:12:13;;;;;;;9.90;7.17;;;;;;;;;;5013798;28;20467;-74
2021/09/25 05:14:40;;;;;;;9.60;7.37;;;;;;;;;;5015650;28;20591;-73
2021/09/25 05:17:06;;;;;;;11.70;9.03;;;;;;;;;;5013773;28;20424;-74
2021/09/25 05:19:32;;;;;;;11.37;7.60;;;;;;;;;;5012875;28;20436;-73
2021/09/25 05:21:58;;;;;;;13.47;7.90;;;;;;;;;;5013680;28;20792;-74
2021/09/25 05:24:24;;;;;;;9.63;7.53;;;;;;;;;;5013456;28;20446;-72
2021/09/25 05:26:50;;;;;;;9.97;7.70;;;;;;;;;;5013351;28;20440;-73
2021/09/25 05:29:16;;;;;;;8.97;7.10;;;;;;;;;;5028393;28;20440;-74
2021/09/25 05:31:45;;;;;;;11.70;7.80;;;;;;;;;;5013256;28;20418;-73
2021/09/25 05:34:12;;;;;;;10.17;7.43;;;;;;;;;;5028268;28;20482;-74
2021/09/25 05:36:38;;;;;;;13.87;7.53;;;;;;;;;;5013219;28;20505;-74
2021/09/25 05:39:05;;;;;;;16.67;7.97;;;;;;;;;;5013268;28;20511;-73
2021/09/25 05:41:32;;;;;;;16.43;8.90;;;;;;;;;;5012618;28;20416;-73
2021/09/25 05:43:58;;;;;;;9.93;7.50;;;;;;;;;;5013211;28;20436;-73
2021/09/25 05:46:23;;;;;;;12.30;8.40;;;;;;;;;;5012905;28;20408;-72
2021/09/25 05:48:52;;;;;;;11.40;7.90;;;;;;;;;;5013208;28;20452;-73
2021/09/25 05:51:19;;;;;;;17.00;7.63;;;;;;;;;;5013030;28;20835;-74
2021/09/25 05:53:45;;;;;;;11.83;7.57;;;;;;;;;;5013065;28;20439;-73
2021/09/25 05:56:10;;;;;;;13.90;8.10;;;;;;;;;;5012627;28;20480;-73
2021/09/25 05:58:36;;;;;;;11.30;7.60;;;;;;;;;;5013164;28;20816;-74
2021/09/25 06:01:03;;;;;;;9.20;7.07;;;;;;;;;;5020954;28;20428;-74
2021/09/25 06:03:28;;;;;;;9.97;7.30;;;;;;;;;;5032840;28;20625;-74
2021/09/25 06:05:54;;;;;;;16.27;7.40;;;;;;;;;;5032611;28;20404;-73
2021/09/25 06:08:20;;;;;;;8.43;7.53;;;;;;;;;;5032824;28;20464;-74
2021/09/25 06:10:46;;;;;;;6.70;6.03;;;;;;;;;;5032608;28;20457;-73
2021/09/25 06:13:12;;;;;;;7.67;6.97;;;;;;;;;;5032494;28;20420;-75
2021/09/25 06:15:39;;;;;;;7.57;6.87;;;;;;;;;;5032232;28;20565;-73
2021/09/25 06:18:05;;;;;;;7.80;7.07;;;;;;;;;;5032583;28;20412;-73
2021/09/25 06:20:31;;;;;;;9.10;7.50;;;;;;;;;;5032831;28;20416;-74
2021/09/25 06:22:57;;;;;;;9.43;8.43;;;;;;;;;;5032580;28;20451;-74
2021/09/25 06:25:23;;;;;;;8.03;7.33;;;;;;;;;;5018658;28;20433;-73
2021/09/25 06:27:50;;;;;;;8.00;7.17;;;;;;;;;;5012301;28;20428;-73
2021/09/25 06:30:16;;;;;;;7.97;7.17;;;;;;;;;;5013207;28;20425;-74
2021/09/25 06:32:42;;;;;;;8.30;7.13;;;;;;;;;;5016848;28;20516;-74
2021/09/25 06:35:10;;;;;;;8.47;7.50;;;;;;;;;;5016671;28;20479;-73
2021/09/25 06:37:36;;;;;;;11.30;7.33;;;;;;;;;;5016708;28;20501;-72
2021/09/25 06:40:03;;;;;;;9.80;6.73;;;;;;;;;;5016541;28;20423;-73
2021/09/25 06:42:29;;;;;;;12.33;7.27;;;;;;;;;;5016541;28;20443;-72
2021/09/25 06:44:55;;;;;;;6.80;6.17;;;;;;;;;;5016381;28;20432;-72
2021/09/25 06:56:09;;;;;;;6.87;6.17;;;;;;;;;;4996928;23;20571;-72
2021/09/25 06:58:35;;;;;;;7.30;6.30;;;;;;;;;;4978837;28;20445;-72
2021/09/25 07:01:01;;;;;;;8.67;6.47;;;;;;;;;;4996512;28;20433;-72
2021/09/25 07:03:27;;;;;;;6.83;6.20;;;;;;;;;;4995393;28;20441;-73
2021/09/25 07:05:53;;;;;;;7.13;6.20;;;;;;;;;;4996749;28;20420;-74
2021/09/25 07:08:19;;;;;;;7.43;6.60;;;;;;;;;;4996812;28;20504;-74
2021/09/25 07:10:46;;;;;;;7.83;6.90;;;;;;;;;;4996911;28;20458;-73
2021/09/25 07:13:11;;;;;;;11.40;7.33;;;;;;;;;;4995204;28;20417;-71
2021/09/25 07:15:38;;;;;;;16.20;8.33;;;;;;;;;;4976874;28;20474;-72
2021/09/25 07:18:04;;;;;;;11.23;7.67;;;;;;;;;;4977080;28;20414;-72
2021/09/25 07:20:30;;;;;;;19.03;8.67;;;;;;;;;;4977013;28;20525;-74
2021/09/25 07:22:56;;;;;;;8.97;6.90;;;;;;;;;;4977069;28;20422;-73
2021/09/25 07:25:22;;;;;;;10.27;7.90;;;;;;;;;;4976947;28;21020;-73
2021/09/25 07:27:49;;;;;;;9.47;7.57;;;;;;;;;;4976555;28;20414;-73
2021/09/25 07:30:15;;;;;;;10.20;7.87;;;;;;;;;;4976677;28;20423;-73
2021/09/25 07:32:41;;;;;;;14.63;7.90;;;;;;;;;;4976878;28;20429;-73
2021/09/25 07:35:08;;;;;;;13.40;6.70;;;;;;;;;;4976646;28;20481;-72
2021/09/25 07:37:34;;;;;;;11.10;5.87;;;;;;;;;;4975370;28;20434;-72
2021/09/25 07:40:02;;;;;;;6.17;5.57;;;;;;;;;;4976422;28;20868;-73
2021/09/25 07:42:28;;;;;;;5.37;4.87;;;;;;;;;;4975395;28;20411;-72
2021/09/25 07:44:54;;;;;;;4.63;4.20;;;;;;;;;;4976333;28;20904;-73
2021/09/25 07:47:20;;;;;;;4.30;4.00;;;;;;;;;;4976523;28;20414;-73
2021/09/25 07:49:46;;;;;;;5.80;4.53;;;;;;;;;;4976302;28;20437;-73
2021/09/25 07:52:12;;;;;;;5.10;4.53;;;;;;;;;;4976167;28;20442;-72
2021/09/25 07:54:38;;;;;;;4.40;4.00;;;;;;;;;;4976023;28;20544;-73
2021/09/25 07:57:04;;;;;;;5.23;4.30;;;;;;;;;;4975921;28;20455;-73
2021/09/25 07:59:30;;;;;;;4.57;3.83;;;;;;;;;;4976298;28;20419;-72
2021/09/25 08:01:56;;;;;;;4.40;4.00;;;;;;;;;;4976883;28;20484;-73
2021/09/25 08:04:22;;;;;;;5.00;4.60;;;;;;;;;;4974809;28;20801;-72
2021/09/25 08:06:48;;;;;;;5.20;4.20;;;;;;;;;;4976117;28;20430;-74
2021/09/25 08:09:14;;;;;;;4.57;4.17;;;;;;;;;;4976146;28;20422;-73
2021/09/25 08:11:40;;;;;;;4.93;4.53;;;;;;;;;;4975628;28;20724;-72
2021/09/25 08:14:06;;;;;;;5.03;4.53;;;;;;;;;;4978650;28;20457;-73
2021/09/25 08:16:32;;;;;;;5.60;5.00;;;;;;;;;;4975776;28;20454;-74
2021/09/25 08:18:58;;;;;;;6.30;4.43;;;;;;;;;;4980439;28;20489;-71
2021/09/25 08:21:24;;;;;;;7.40;5.30;;;;;;;;;;4975257;28;20854;-74
2021/09/25 08:23:51;;;;;;;12.20;6.87;;;;;;;;;;4975782;28;20932;-73
2021/09/25 08:26:16;;;;;;;9.90;4.70;;;;;;;;;;4991937;28;20453;-72
2021/09/25 08:28:42;;;;;;;5.97;5.27;;;;;;;;;;4995266;28;20851;-74
2021/09/25 08:31:08;;;;;;;3.93;3.63;;;;;;;;;;4993017;28;20418;-77
2021/09/25 08:33:34;;;;;;;3.97;3.67;;;;;;;;;;4987783;28;20465;-76
2021/09/25 08:36:01;;;;;;;4.07;3.67;;;;;;;;;;4995096;28;20509;-74
2021/09/25 08:38:27;;;;;;;3.87;3.57;;;;;;;;;;4995430;28;20421;-76
2021/09/25 08:40:55;;;;;;;4.90;3.47;;;;;;;;;;4980076;28;20438;-76
2021/09/25 08:43:24;;;;;;;6.70;4.60;;;;;;;;;;4975514;28;20407;-75
2021/09/25 08:45:54;;;;;;;4.13;3.47;;;;;;;;;;4974672;28;20427;-76
2021/09/25 08:48:20;;;;;;;6.23;4.37;;;;;;;;;;4975922;28;20861;-75
2021/09/25 08:50:46;;;;;;;3.80;3.50;;;;;;;;;;4975201;28;20426;-75
2021/09/25 08:53:12;;;;;;;4.57;3.90;;;;;;;;;;4975311;28;20472;-77
2021/09/25 08:55:38;;;;;;;4.30;3.83;;;;;;;;;;4974458;28;20490;-74
2021/09/25 08:58:06;;;;;;;3.60;3.30;;;;;;;;;;4974905;28;20901;-75
2021/09/25 09:00:35;;;;;;;4.40;3.97;;;;;;;;;;4979161;28;20872;-74
2021/09/25 09:03:30;;;;;;;4.97;4.23;;;;;;;;;;4977601;28;20434;-74
2021/09/25 09:06:04;;;;;;;4.67;4.07;;;;;;;;;;4988027;28;20512;-74
2021/09/25 09:08:30;;;;;;;4.47;4.07;;;;;;;;;;4978700;28;20753;-73
2021/09/25 09:10:56;;;;;;;5.00;4.63;;;;;;;;;;4984474;28;20464;-73
2021/09/25 09:13:22;;;;;;;5.50;5.00;;;;;;;;;;4984423;28;20502;-73
2021/09/25 09:15:50;;;;;;;5.23;4.73;;;;;;;;;;4991164;28;20484;-75
2021/09/25 09:18:17;;;;;;;5.83;5.30;;;;;;;;;;4976657;28;20517;-75
2021/09/25 09:21:03;;;;;;;6.10;5.47;;;;;;;;;;4972074;28;20590;-74
2021/09/25 09:23:30;;;;;;;4.40;4.00;;;;;;;;;;4979518;28;20445;-76
2021/09/25 09:25:56;;;;;;;4.90;4.50;;;;;;;;;;4988372;28;20928;-74
2021/09/25 09:28:24;;;;;;;5.70;5.20;;;;;;;;;;4991510;28;20429;-73
2021/09/25 09:30:51;;;;;;;5.20;4.70;;;;;;;;;;4991516;28;20434;-74
2021/09/25 09:33:38;;;;;;;5.00;4.50;;;;;;;;;;4990498;28;20450;-76
2021/09/25 09:36:13;;;;;;;4.50;4.10;;;;;;;;;;4989847;28;20488;-74
2021/09/25 09:38:39;;;;;;;5.50;4.33;;;;;;;;;;4987661;28;20451;-76
2021/09/25 09:41:05;;;;;;;5.03;4.63;;;;;;;;;;4980560;28;20803;-75
2021/09/25 09:43:31;;;;;;;5.20;4.80;;;;;;;;;;4993982;28;20965;-77
2021/09/25 09:45:58;;;;;;;4.53;4.23;;;;;;;;;;4992647;28;20446;-78
2021/09/25 09:48:24;;;;;;;4.53;4.10;;;;;;;;;;4989321;28;20449;-77
2021/09/25 09:50:51;;;;;;;4.83;4.03;;;;;;;;;;4994685;28;20511;-73
2021/09/25 09:53:17;;;;;;;5.93;5.20;;;;;;;;;;4972149;28;20541;-74
2021/09/25 09:55:43;;;;;;;5.27;4.73;;;;;;;;;;4973333;28;20537;-78
2021/09/25 09:58:09;;;;;;;4.83;4.30;;;;;;;;;;4983860;28;20472;-77
2021/09/25 10:00:36;;;;;;;4.73;4.30;;;;;;;;;;4993822;28;20449;-77
2021/09/25 10:03:02;;;;;;;5.97;4.17;;;;;;;;;;4994516;28;20453;-76
2021/09/25 10:05:28;;;;;;;5.40;4.80;;;;;;;;;;4992346;28;20441;-78
2021/09/25 10:07:54;;;;;;;5.43;5.03;;;;;;;;;;4995216;28;20433;-76
2021/09/25 10:10:24;;;;;;;4.63;4.23;;;;;;;;;;4994324;28;20480;-77
2021/09/25 10:12:50;;;;;;;6.13;3.87;;;;;;;;;;4992656;28;20508;-76
2021/09/25 10:15:16;;;;;;;4.40;4.10;;;;;;;;;;4989766;28;20588;-77
2021/09/25 10:17:43;;;;;;;4.40;4.00;;;;;;;;;;4990660;28;20473;-76
2021/09/25 10:20:10;;;;;;;4.57;4.23;;;;;;;;;;4991049;28;20480;-75
2021/09/25 10:22:37;;;;;;;3.90;3.57;;;;;;;;;;4985831;28;20445;-74
2021/09/25 10:25:05;;;;;;;4.47;4.07;;;;;;;;;;4974420;28;20781;-77
2021/09/25 10:27:34;;;;;;;4.83;4.33;;;;;;;;;;4973083;28;20410;-76
2021/09/25 10:30:03;;;;;;;4.00;3.70;;;;;;;;;;4973649;28;20502;-75
2021/09/25 10:32:30;;;;;;;4.63;4.33;;;;;;;;;;4973670;28;20418;-75
2021/09/25 10:34:56;;;;;;;6.47;4.40;;;;;;;;;;4991505;28;20695;-74
2021/09/25 10:37:22;;;;;;;3.80;3.43;;;;;;;;;;4974502;28;20446;-72
2021/09/25 10:39:56;;;;;;;4.43;4.03;;;;;;;;;;4979630;28;20441;-71
2021/09/25 10:42:22;;;;;;;4.00;3.70;;;;;;;;;;4981509;28;20803;-72
2021/09/25 10:44:52;;;;;;;6.80;3.70;;;;;;;;;;4984078;28;20792;-72
2021/09/25 10:47:18;;;;;;;4.03;3.73;;;;;;;;;;4993261;28;20468;-71
2021/09/25 10:49:44;;;;;;;5.97;4.00;;;;;;;;;;4993035;28;20908;-73
2021/09/25 10:52:10;;;;;;;6.43;3.70;;;;;;;;;;4993142;28;20410;-73
2021/09/25 10:54:36;;;;;;;4.53;4.13;;;;;;;;;;4991376;28;20295;-73
2021/09/25 10:57:07;;;;;;;3.80;3.60;;;;;;;;;;4976530;28;20461;-72
2021/09/25 10:59:33;;;;;;;3.47;3.17;;;;;;;;;;4990267;28;20591;-72
2021/09/25 11:01:59;;;;;;;4.00;3.70;;;;;;;;;;4978337;28;20555;-73
2021/09/25 11:04:25;;;;;;;3.80;3.60;;;;;;;;;;4992892;28;20433;-72
2021/09/25 11:06:58;;;;;;;3.90;3.60;;;;;;;;;;4992977;28;20433;-72
2021/09/25 11:09:25;;;;;;;4.37;3.97;;;;;;;;;;4993230;28;20430;-73
2021/09/25 11:11:52;;;;;;;4.60;4.20;;;;;;;;;;4992674;28;20430;-73
2021/09/25 11:14:37;;;;;;;3.30;3.10;;;;;;;;;;4982856;28;20445;-73
2021/09/25 11:17:07;;;;;;;5.00;4.37;;;;;;;;;;4973535;28;20455;-72
2021/09/25 11:19:38;;;;;;;4.33;4.03;;;;;;;;;;4977003;28;20469;-72
2021/09/25 11:22:07;;;;;;;4.00;3.70;;;;;;;;;;4976923;28;20774;-73
2021/09/25 11:24:34;;;;;;;4.57;4.17;;;;;;;;;;4976955;28;20430;-73
2021/09/25 11:27:01;;;;;;;5.50;3.53;;;;;;;;;;4976541;28;20480;-73
2021/09/25 11:29:27;;;;;;;4.20;3.90;;;;;;;;;;4976590;28;20430;-72
2021/09/25 11:32:04;;;;;;;3.73;3.43;;;;;;;;;;4976850;28;20425;-73
2021/09/25 11:34:30;;;;;;;4.50;4.13;;;;;;;;;;4976702;28;20648;-73
2021/09/25 11:36:57;;;;;;;3.57;3.27;;;;;;;;;;4976754;28;20426;-73
2021/09/25 11:39:24;;;;;;;4.43;4.03;;;;;;;;;;4976646;28;20501;-72
2021/09/25 11:42:08;;;;;;;3.73;3.40;;;;;;;;;;4976174;28;20513;-73
2021/09/25 11:44:45;;;;;;;5.10;4.70;;;;;;;;;;4976434;28;20441;-73
2021/09/25 11:47:11;;;;;;;4.53;4.13;;;;;;;;;;4976411;28;20421;-73
2021/09/25 11:49:37;;;;;;;5.10;3.83;;;;;;;;;;4975219;28;20506;-73
2021/09/25 11:52:03;;;;;;;4.20;3.90;;;;;;;;;;4976388;28;20510;-73
2021/09/25 11:54:29;;;;;;;5.00;3.83;;;;;;;;;;4976161;28;20489;-75
2021/09/25 11:56:55;;;;;;;3.70;3.40;;;;;;;;;;4975959;28;20423;-74
2021/09/25 11:59:23;;;;;;;3.83;3.53;;;;;;;;;;4976294;28;20743;-72
2021/09/25 12:01:49;;;;;;;4.97;4.47;;;;;;;;;;4990004;28;20430;-73
2021/09/25 12:04:15;;;;;;;4.27;3.87;;;;;;;;;;4976584;28;20504;-74
2021/09/25 12:06:51;;;;;;;4.20;3.90;;;;;;;;;;4976021;28;20430;-73
2021/09/25 12:09:18;;;;;;;5.83;4.13;;;;;;;;;;4978792;28;20442;-73
2021/09/25 12:11:44;;;;;;;4.00;3.70;;;;;;;;;;4994186;28;21026;-74
2021/09/25 12:14:10;;;;;;;3.20;3.00;;;;;;;;;;4995488;28;20672;-73
2021/09/25 12:16:36;;;;;;;3.17;2.97;;;;;;;;;;4980863;28;20434;-74
2021/09/25 12:19:02;;;;;;;3.17;2.97;;;;;;;;;;4974665;28;20494;-74
2021/09/25 12:21:28;;;;;;;2.87;2.67;;;;;;;;;;4975780;28;20563;-74
2021/09/25 12:24:06;;;;;;;2.60;2.40;;;;;;;;;;4976008;28;20435;-72
2021/09/25 12:26:33;;;;;;;3.00;2.80;;;;;;;;;;4975521;28;20469;-74
2021/09/25 12:29:00;;;;;;;2.77;2.57;;;;;;;;;;4975809;28;20423;-74
2021/09/25 12:31:26;;;;;;;2.77;2.47;;;;;;;;;;4975470;28;20976;-74
2021/09/25 12:33:59;;;;;;;2.67;2.47;;;;;;;;;;4975824;28;20443;-74
2021/09/25 12:36:31;;;;;;;3.00;2.80;;;;;;;;;;4975547;28;20474;-73
2021/09/25 12:39:02;;;;;;;2.97;2.77;;;;;;;;;;4975934;28;20421;-74
2021/09/25 12:41:28;;;;;;;2.77;2.57;;;;;;;;;;4974698;28;20912;-74
2021/09/25 12:43:56;;;;;;;3.30;3.00;;;;;;;;;;4975605;28;20422;-73
2021/09/25 12:46:26;;;;;;;2.87;2.67;;;;;;;;;;4973970;28;20443;-73
2021/09/25 12:49:00;;;;;;;2.33;2.13;;;;;;;;;;4975756;28;20770;-74
2021/09/25 12:51:26;;;;;;;3.00;2.43;;;;;;;;;;4975510;28;20925;-74
2021/09/25 12:53:53;;;;;;;2.50;2.30;;;;;;;;;;4975408;28;20438;-73
2021/09/25 12:56:19;;;;;;;3.53;3.23;;;;;;;;;;4974529;28;20486;-73
2021/09/25 12:58:49;;;;;;;3.00;2.80;;;;;;;;;;4975116;28;20426;-75
2021/09/25 13:01:24;;;;;;;2.60;2.40;;;;;;;;;;4984448;28;20920;-73
2021/09/25 13:03:50;;;;;;;2.40;2.20;;;;;;;;;;4994511;28;20426;-73
2021/09/25 13:06:22;;;;;;;3.13;2.93;;;;;;;;;;4994607;28;20437;-73
2021/09/25 13:08:59;;;;;;;2.80;2.60;;;;;;;;;;4994468;28;20414;-72
2021/09/25 13:11:25;;;;;;;2.60;2.40;;;;;;;;;;4993984;28;20528;-72
2021/09/25 13:14:10;;;;;;;2.80;2.60;;;;;;;;;;4994440;28;20418;-74
2021/09/25 13:16:36;;;;;;;2.60;2.37;;;;;;;;;;4994026;28;20468;-73
2021/09/25 13:19:03;;;;;;;2.93;2.10;;;;;;;;;;4992686;28;20426;-73
2021/09/25 13:21:29;;;;;;;5.53;2.70;;;;;;;;;;4992545;28;20787;-74
2021/09/25 13:24:02;;;;;;;3.30;2.67;;;;;;;;;;4994212;28;20425;-73
2021/09/25 13:26:29;;;;;;;2.50;2.30;;;;;;;;;;4993609;28;20516;-74
2021/09/25 13:28:55;;;;;;;2.73;2.53;;;;;;;;;;4989944;28;20506;-73
2021/09/25 13:31:21;;;;;;;2.53;2.33;;;;;;;;;;4974406;28;20431;-73
2021/09/25 13:33:47;;;;;;;2.10;1.90;;;;;;;;;;4974727;28;20828;-74
2021/09/25 13:36:13;;;;;;;3.50;2.40;;;;;;;;;;4982462;28;20832;-74
2021/09/25 13:38:39;;;;;;;2.90;2.70;;;;;;;;;;4993355;28;20413;-74
2021/09/25 13:41:05;;;;;;;3.10;1.87;;;;;;;;;;4992808;28;20934;-73
2021/09/25 13:43:31;;;;;;;2.30;2.10;;;;;;;;;;4993983;28;20420;-73
2021/09/25 13:45:57;;;;;;;2.50;2.13;;;;;;;;;;4993793;28;20421;-73
2021/09/25 13:48:23;;;;;;;3.23;2.67;;;;;;;;;;4993836;28;20784;-74
2021/09/25 13:50:49;;;;;;;2.90;2.60;;;;;;;;;;4993754;28;20527;-74
2021/09/25 13:53:15;;;;;;;6.67;2.40;;;;;;;;;;4992838;28;20465;-75
2021/09/25 13:55:41;;;;;;;2.90;2.60;;;;;;;;;;4992347;28;20555;-73
2021/09/25 13:58:07;;;;;;;3.10;2.43;;;;;;;;;;4993303;28;20504;-74
2021/09/25 14:00:33;;;;;;;2.73;2.53;;;;;;;;;;4989572;28;20529;-74
2021/09/25 14:02:59;;;;;;;2.60;2.40;;;;;;;;;;4974224;28;20422;-74
2021/09/25 14:05:27;;;;;;;2.60;2.40;;;;;;;;;;4973930;28;20438;-74
2021/09/25 14:07:53;;;;;;;2.50;2.30;;;;;;;;;;4974395;28;20430;-74
2021/09/25 14:10:19;;;;;;;2.63;2.43;;;;;;;;;;4974122;28;20545;-74
2021/09/25 14:12:45;;;;;;;3.00;2.80;;;;;;;;;;4973773;28;20423;-75
2021/09/25 14:15:11;;;;;;;2.63;2.13;;;;;;;;;;4973969;28;20473;-73
2021/09/25 14:17:37;;;;;;;3.70;2.97;;;;;;;;;;4973872;28;20430;-74
2021/09/25 14:20:05;;;;;;;3.77;3.40;;;;;;;;;;4973945;28;20434;-74
2021/09/25 14:22:32;;;;;;;2.97;2.77;;;;;;;;;;4973867;28;20427;-74
2021/09/25 14:24:58;;;;;;;6.40;2.80;;;;;;;;;;4973988;28;20951;-74
2021/09/25 14:27:24;;;;;;;2.97;2.77;;;;;;;;;;4973593;28;20431;-74
2021/09/25 14:29:50;;;;;;;3.67;3.37;;;;;;;;;;4974184;28;20422;-74
2021/09/25 14:32:16;;;;;;;25.83;23.90;;;;;;;;;;4974062;28;20410;-74
2021/09/25 14:34:42;;;;;;;11.60;10.70;;;;;;;;;;4973896;28;20496;-74
2021/09/25 14:37:08;;;;;;;19.07;17.63;;;;;;;;;;4973522;28;20489;-74
2021/09/25 14:39:35;;;;;;;3.20;3.00;;;;;;;;;;4972569;28;20917;-73
2021/09/25 14:42:01;;;;;;;20.67;19.17;;;;;;;;;;4973503;28;20446;-74
2021/09/25 14:44:31;;;;;;;19.93;18.43;;;;;;;;;;4974033;28;20437;-74